Time;durP1;ratioP1;P1;durP2;ratioP2;P2;SDS_P1;SDS_P2;PMS_P1;PMS_P2;Temp;Humidity;BMP_temperature;BMP_pressure;BME280_temperature;BME280_humidity;BME280_pressure;Samples;Min_cycle;Max_cycle;Signal;HPM_P1;HPM_P2
2021/08/30 00:00:12;;;;;;;4.60;3.93;;;;;;;13.49;100.00;100526.16;5018758;28;20759;-74
2021/08/30 00:02:38;;;;;;;6.10;4.37;;;;;;;13.48;100.00;100529.72;5021542;28;21083;-74
2021/08/30 00:05:06;;;;;;;5.23;4.13;;;;;;;13.46;100.00;100526.31;5022259;28;20219;-73
2021/08/30 00:07:33;;;;;;;4.50;3.67;;;;;;;13.44;100.00;100527.19;5021163;28;20210;-73
2021/08/30 00:10:01;;;;;;;4.43;3.83;;;;;;;13.41;100.00;100518.63;5018722;28;20204;-73
2021/08/30 00:12:27;;;;;;;4.40;3.83;;;;;;;13.34;100.00;100523.25;5020270;28;20235;-73
2021/08/30 00:14:55;;;;;;;4.63;4.03;;;;;;;13.29;100.00;100519.91;5022807;28;20204;-73
2021/08/30 00:17:21;;;;;;;6.47;4.33;;;;;;;13.22;100.00;100521.06;5003246;28;20224;-73
2021/08/30 00:19:48;;;;;;;5.30;4.30;;;;;;;13.17;100.00;100516.00;5004024;28;21459;-73
2021/08/30 00:22:14;;;;;;;4.57;3.70;;;;;;;13.10;100.00;100511.91;5019761;28;20641;-73
2021/08/30 00:24:40;;;;;;;4.93;3.90;;;;;;;13.02;100.00;100509.59;5021629;28;20234;-75
2021/08/30 00:27:08;;;;;;;5.43;4.10;;;;;;;12.96;100.00;100515.06;5020518;28;20229;-73
2021/08/30 00:29:34;;;;;;;5.83;4.13;;;;;;;12.91;100.00;100513.53;5002689;28;20208;-73
2021/08/30 00:32:01;;;;;;;5.30;4.13;;;;;;;12.84;100.00;100521.63;5023729;28;20237;-73
2021/08/30 00:34:28;;;;;;;5.97;4.27;;;;;;;12.79;100.00;100523.56;5021182;28;20292;-74
2021/08/30 00:36:55;;;;;;;6.13;3.97;;;;;;;12.79;100.00;100522.72;5021750;28;20364;-73
2021/08/30 00:39:23;;;;;;;4.90;4.40;;;;;;;12.79;100.00;100515.69;5019153;28;20681;-74
2021/08/30 00:41:50;;;;;;;5.07;3.80;;;;;;;12.74;100.00;100512.41;5022045;28;20303;-73
2021/08/30 00:44:18;;;;;;;5.93;4.20;;;;;;;12.72;100.00;100519.47;5020554;28;20204;-73
2021/08/30 00:46:45;;;;;;;5.90;4.17;;;;;;;12.73;100.00;100517.69;5021414;28;20196;-73
2021/08/30 00:49:11;;;;;;;6.47;4.13;;;;;;;12.68;100.00;100520.47;5019509;28;20565;-73
2021/08/30 00:51:37;;;;;;;5.47;4.10;;;;;;;12.63;100.00;100522.41;5021120;28;20234;-73
2021/08/30 00:54:04;;;;;;;5.33;4.17;;;;;;;12.55;100.00;100512.22;5019606;28;20283;-73
2021/08/30 00:56:30;;;;;;;4.97;4.00;;;;;;;12.47;100.00;100519.47;5020793;28;20200;-73
2021/08/30 00:58:57;;;;;;;5.33;4.03;;;;;;;12.43;100.00;100520.50;5021626;28;20206;-73
2021/08/30 01:01:25;;;;;;;4.73;3.77;;;;;;;12.41;100.00;100515.31;5016896;28;20231;-73
2021/08/30 01:03:54;;;;;;;6.07;4.00;;;;;;;12.44;100.00;100514.38;5021482;28;20301;-73
2021/08/30 01:06:28;;;;;;;17.97;4.37;;;;;;;12.42;100.00;100522.25;5018051;28;20230;-73
2021/08/30 01:09:03;;;;;;;5.23;3.50;;;;;;;12.39;100.00;100518.91;5012669;28;20222;-73
2021/08/30 01:11:33;;;;;;;5.43;4.00;;;;;;;12.41;100.00;100517.94;5020789;28;20230;-73
2021/08/30 01:14:03;;;;;;;5.67;3.80;;;;;;;12.37;100.00;100518.13;5019899;28;20208;-73
2021/08/30 01:16:32;;;;;;;4.90;3.70;;;;;;;12.39;100.00;100518.91;5020916;28;20424;-73
2021/08/30 01:19:02;;;;;;;7.70;3.90;;;;;;;12.39;100.00;100521.53;5016976;28;20873;-73
2021/08/30 01:21:32;;;;;;;7.70;4.10;;;;;;;12.36;100.00;100524.25;5010303;28;20226;-73
2021/08/30 01:24:04;;;;;;;8.07;4.37;;;;;;;12.30;100.00;100520.94;5019143;28;20254;-73
2021/08/30 01:26:33;;;;;;;6.97;3.90;;;;;;;12.27;100.00;100522.78;5021777;28;20233;-73
2021/08/30 01:29:06;;;;;;;8.27;4.50;;;;;;;12.29;100.00;100519.25;5015732;28;20206;-73
2021/08/30 01:31:48;;;;;;;4.70;3.67;;;;;;;12.27;100.00;100526.25;5018050;28;20985;-73
2021/08/30 01:34:17;;;;;;;5.17;3.80;;;;;;;12.27;100.00;100522.78;5020682;28;20558;-73
2021/08/30 01:36:46;;;;;;;4.77;3.57;;;;;;;12.32;100.00;100521.72;5018653;28;20226;-73
2021/08/30 01:39:13;;;;;;;4.53;3.53;;;;;;;12.34;100.00;100523.44;5016128;28;20207;-73
2021/08/30 01:41:41;;;;;;;5.43;3.60;;;;;;;12.36;100.00;100519.84;5018896;28;20231;-74
2021/08/30 01:44:09;;;;;;;4.37;3.27;;;;;;;12.31;100.00;100533.09;5020427;28;20673;-73
2021/08/30 01:46:36;;;;;;;5.57;3.43;;;;;;;12.34;100.00;100531.28;5019909;28;20915;-73
2021/08/30 01:49:03;;;;;;;8.20;3.20;;;;;;;12.34;100.00;100529.50;5019029;28;20437;-73
2021/08/30 01:51:31;;;;;;;4.10;3.37;;;;;;;12.35;100.00;100532.97;5015711;28;20225;-73
2021/08/30 01:53:58;;;;;;;10.87;3.67;;;;;;;12.33;100.00;100530.44;5018418;28;20196;-73
2021/08/30 01:56:28;;;;;;;5.73;3.60;;;;;;;12.31;100.00;100532.22;5019135;28;20684;-74
2021/08/30 02:01:40;;;;;;;4.17;3.47;;;;;;;12.31;100.00;100529.63;5020867;28;20345;-74
2021/08/30 02:04:07;;;;;;;6.63;4.00;;;;;;;12.29;100.00;100534.91;5018723;28;20313;-73
2021/08/30 02:06:35;;;;;;;6.30;3.90;;;;;;;12.23;100.00;100537.72;5020543;28;20727;-73
2021/08/30 02:09:03;;;;;;;8.10;3.23;;;;;;;12.24;100.00;100538.56;5015744;28;20207;-73
2021/08/30 02:11:32;;;;;;;3.70;3.30;;;;;;;12.29;100.00;100537.53;5019759;28;20322;-74
2021/08/30 02:13:59;;;;;;;5.80;3.70;;;;;;;12.35;100.00;100532.97;5021258;28;20208;-73
2021/08/30 02:16:27;;;;;;;5.60;4.13;;;;;;;12.36;100.00;100535.53;5016701;28;20223;-73
2021/08/30 02:18:59;;;;;;;7.10;4.33;;;;;;;12.37;100.00;100531.19;5019600;28;20236;-74
2021/08/30 02:21:32;;;;;;;7.73;4.37;;;;;;;12.34;100.00;100537.34;5017325;28;20278;-73
2021/08/30 02:24:05;;;;;;;10.03;3.97;;;;;;;12.35;100.00;100535.59;5021029;28;20211;-73
2021/08/30 02:26:39;;;;;;;8.83;3.97;;;;;;;12.38;100.00;100536.34;5021276;28;20893;-74
2021/08/30 02:29:08;;;;;;;5.10;4.10;;;;;;;12.37;100.00;100537.25;5017155;28;20226;-73
2021/08/30 02:31:35;;;;;;;9.73;4.40;;;;;;;12.35;100.00;100544.31;5019505;28;20227;-73
2021/08/30 02:34:02;;;;;;;5.33;3.60;;;;;;;12.35;100.00;100541.69;5021096;28;20216;-73
2021/08/30 02:36:29;;;;;;;4.67;3.23;;;;;;;12.36;100.00;100542.53;5023812;28;20638;-73
2021/08/30 02:38:58;;;;;;;5.70;4.17;;;;;;;12.34;100.00;100545.19;5022196;28;20211;-74
2021/08/30 02:41:27;;;;;;;4.13;3.60;;;;;;;12.36;100.00;100547.75;5024885;28;20321;-74
2021/08/30 02:43:54;;;;;;;5.10;3.80;;;;;;;12.34;100.00;100550.44;5020894;28;20810;-73
2021/08/30 02:46:20;;;;;;;4.70;3.70;;;;;;;12.34;100.00;100550.44;5022705;28;20326;-73
2021/08/30 02:48:48;;;;;;;5.90;3.60;;;;;;;12.38;100.00;100553.78;5021801;28;20214;-73
2021/08/30 02:51:15;;;;;;;3.77;3.33;;;;;;;12.37;100.00;100545.09;5023179;28;20218;-73
2021/08/30 02:53:42;;;;;;;3.90;3.50;;;;;;;12.38;100.00;100551.19;5024941;28;20196;-74
2021/08/30 02:56:09;;;;;;;3.70;3.30;;;;;;;12.36;100.00;100547.75;5023398;28;20207;-73
2021/08/30 02:58:37;;;;;;;4.57;3.67;;;;;;;12.39;100.00;100550.28;5022744;28;20205;-74
2021/08/30 03:01:04;;;;;;;4.70;3.33;;;;;;;12.41;100.00;100543.22;5019477;28;20211;-74
2021/08/30 03:03:31;;;;;;;5.07;3.57;;;;;;;12.41;100.00;100545.84;5023775;28;20199;-73
2021/08/30 03:05:58;;;;;;;4.10;3.53;;;;;;;12.44;100.00;100543.97;5019303;28;20931;-74
2021/08/30 03:08:25;;;;;;;3.90;3.07;;;;;;;12.46;100.00;100546.53;5024655;28;20868;-73
2021/08/30 03:10:54;;;;;;;8.20;3.47;;;;;;;12.48;100.00;100548.19;5016237;28;20211;-73
2021/08/30 03:13:21;;;;;;;6.30;3.47;;;;;;;12.52;100.00;100548.06;5023957;28;20594;-74
2021/08/30 03:15:49;;;;;;;3.90;3.20;;;;;;;12.51;100.00;100552.47;5021438;28;20214;-73
2021/08/30 03:18:18;;;;;;;3.67;3.20;;;;;;;12.47;100.00;100548.22;5021761;28;20213;-73
2021/08/30 03:20:45;;;;;;;5.63;3.47;;;;;;;12.45;100.00;100550.94;5023773;28;20295;-73
2021/08/30 03:23:12;;;;;;;4.73;3.43;;;;;;;12.49;100.00;100549.06;5021787;28;20215;-74
2021/08/30 03:25:39;;;;;;;3.93;3.33;;;;;;;12.52;100.00;100545.47;5023679;28;20313;-73
2021/08/30 03:28:08;;;;;;;3.70;3.30;;;;;;;12.55;100.00;100542.75;5019591;28;20218;-73
2021/08/30 03:30:35;;;;;;;5.40;4.17;;;;;;;12.57;100.00;100540.94;5023006;28;20208;-73
2021/08/30 03:33:03;;;;;;;4.70;3.97;;;;;;;12.52;100.00;100532.38;5020139;28;20824;-74
2021/08/30 03:35:31;;;;;;;5.73;4.00;;;;;;;12.48;100.00;100531.66;5022886;28;20283;-73
2021/08/30 03:37:58;;;;;;;5.37;3.43;;;;;;;12.45;100.00;100532.63;5021889;28;20234;-73
2021/08/30 03:40:25;;;;;;;5.47;4.17;;;;;;;12.48;100.00;100535.09;5020065;28;20204;-73
2021/08/30 03:42:52;;;;;;;6.53;3.73;;;;;;;12.47;100.00;100546.50;5021992;28;20603;-73
2021/08/30 03:45:19;;;;;;;4.67;3.80;;;;;;;12.50;100.00;100548.13;5019632;28;20212;-73
2021/08/30 03:47:46;;;;;;;6.20;3.77;;;;;;;12.52;100.00;100545.47;5022044;28;20196;-73
2021/08/30 03:50:15;;;;;;;6.70;4.00;;;;;;;12.53;100.00;100540.19;5019935;28;20226;-73
2021/08/30 03:52:42;;;;;;;5.73;3.87;;;;;;;12.52;100.00;100538.47;5021980;28;20307;-75
2021/08/30 03:55:10;;;;;;;6.17;4.00;;;;;;;12.54;100.00;100544.53;5021597;28;20299;-74
2021/08/30 03:57:37;;;;;;;7.63;4.20;;;;;;;12.50;100.00;100540.28;5022575;28;20771;-73
2021/08/30 04:00:06;;;;;;;9.57;4.17;;;;;;;12.57;100.00;100538.31;5020072;28;20206;-73
2021/08/30 04:02:34;;;;;;;7.97;5.10;;;;;;;12.54;100.00;100533.19;5022037;28;20241;-73
2021/08/30 04:05:02;;;;;;;5.70;4.07;;;;;;;12.53;100.00;100539.34;5022337;28;20207;-73
2021/08/30 04:07:29;;;;;;;8.20;4.40;;;;;;;12.57;100.00;100536.53;5021096;28;20228;-73
2021/08/30 04:09:56;;;;;;;6.57;3.87;;;;;;;12.60;100.00;100538.22;5022470;28;20291;-73
2021/08/30 04:12:24;;;;;;;6.17;4.60;;;;;;;12.64;100.00;100539.78;5017224;28;20231;-73
2021/08/30 04:14:52;;;;;;;8.30;4.30;;;;;;;12.62;100.00;100547.69;5019098;28;20760;-73
2021/08/30 04:17:18;;;;;;;5.83;4.63;;;;;;;12.61;100.00;100550.38;5021227;28;20210;-73
2021/08/30 04:19:45;;;;;;;8.53;4.53;;;;;;;12.65;100.00;100552.81;5020826;28;20211;-73
2021/08/30 04:22:11;;;;;;;6.67;4.50;;;;;;;12.65;100.00;100552.81;5021868;28;20221;-73
2021/08/30 04:24:39;;;;;;;7.13;4.47;;;;;;;12.69;100.00;100553.56;5017932;28;20678;-74
2021/08/30 04:27:05;;;;;;;6.10;4.47;;;;;;;12.74;100.00;100542.94;5022078;28;20314;-73
2021/08/30 04:29:33;;;;;;;7.90;4.40;;;;;;;12.79;100.00;100549.72;5017872;28;20212;-73
2021/08/30 04:32:00;;;;;;;7.43;5.00;;;;;;;12.79;100.00;100552.31;5020132;28;20652;-74
2021/08/30 04:34:26;;;;;;;7.10;4.70;;;;;;;12.78;100.00;100542.75;5018623;28;20210;-73
2021/08/30 04:36:53;;;;;;;7.60;5.13;;;;;;;12.79;100.00;100556.72;5021978;28;20237;-73
2021/08/30 04:39:20;;;;;;;8.00;5.00;;;;;;;12.81;100.00;100555.72;5016448;28;20217;-74
2021/08/30 04:41:47;;;;;;;8.67;5.37;;;;;;;12.86;100.00;100560.81;5021047;28;20238;-73
2021/08/30 04:44:15;;;;;;;8.30;5.37;;;;;;;12.88;100.00;100566.84;5021039;28;20822;-73
2021/08/30 04:46:41;;;;;;;8.80;5.00;;;;;;;12.91;100.00;100571.97;5021594;28;20223;-74
2021/08/30 04:49:08;;;;;;;10.20;5.60;;;;;;;12.93;100.00;100582.34;5021156;28;20192;-73
2021/08/30 04:51:35;;;;;;;7.20;5.03;;;;;;;12.93;100.00;100583.22;5019024;28;20730;-73
2021/08/30 04:54:01;;;;;;;8.03;5.10;;;;;;;12.96;100.00;100579.63;5019222;28;20216;-74
2021/08/30 04:56:27;;;;;;;8.20;5.03;;;;;;;12.97;100.00;100574.34;5018042;28;20204;-74
2021/08/30 04:58:55;;;;;;;10.53;5.60;;;;;;;13.00;100.00;100566.38;5019880;28;20211;-74
2021/08/30 05:01:24;;;;;;;8.87;5.63;;;;;;;13.04;100.00;100565.34;5017760;28;20232;-74
2021/08/30 05:03:51;;;;;;;7.33;5.10;;;;;;;13.14;100.00;100565.88;5018168;28;20266;-73
2021/08/30 05:06:17;;;;;;;9.33;5.80;;;;;;;13.18;100.00;100570.06;5018244;28;20222;-74
2021/08/30 05:08:43;;;;;;;10.33;5.90;;;;;;;13.22;100.00;100576.88;5016251;28;20224;-73
2021/08/30 05:11:10;;;;;;;9.10;5.90;;;;;;;13.27;100.00;100582.81;5021370;28;20215;-74
2021/08/30 05:13:36;;;;;;;9.87;5.20;;;;;;;13.31;100.00;100580.06;5022268;28;20207;-74
2021/08/30 05:16:04;;;;;;;8.40;5.67;;;;;;;13.38;100.00;100571.09;5021993;28;20578;-73
2021/08/30 05:18:31;;;;;;;8.43;5.43;;;;;;;13.46;100.00;100586.53;5021094;28;20214;-73
2021/08/30 05:20:57;;;;;;;7.87;5.47;;;;;;;13.46;100.00;100594.41;5022930;28;20298;-75
2021/08/30 05:23:23;;;;;;;9.43;6.13;;;;;;;13.48;100.00;100582.94;5021003;28;20217;-74
2021/08/30 05:25:50;;;;;;;8.23;5.60;;;;;;;13.50;100.00;100578.47;5022202;28;20652;-74
2021/08/30 05:28:16;;;;;;;8.07;5.77;;;;;;;13.57;100.00;100585.19;5021960;28;20200;-73
2021/08/30 05:30:42;;;;;;;6.43;5.03;;;;;;;13.63;100.00;100584.97;5020426;28;20212;-73
2021/08/30 05:33:10;;;;;;;9.47;5.43;;;;;;;13.66;100.00;100591.84;5023547;28;20219;-73
2021/08/30 05:35:36;;;;;;;6.93;4.93;;;;;;;13.68;100.00;100591.78;5019059;28;20218;-74
2021/08/30 05:38:03;;;;;;;7.37;4.73;;;;;;;13.68;100.00;100594.41;5017891;28;20201;-73
2021/08/30 05:40:29;;;;;;;6.90;4.50;;;;;;;13.71;100.00;100599.53;5014238;28;20685;-74
2021/08/30 05:42:55;;;;;;;5.57;4.30;;;;;;;13.76;100.00;100592.34;5020166;28;20232;-74
2021/08/30 05:45:22;;;;;;;6.07;4.27;;;;;;;13.80;100.00;100588.66;5017649;28;20557;-74
2021/08/30 05:47:48;;;;;;;6.03;4.77;;;;;;;13.83;100.00;100589.41;5020934;28;20614;-73
2021/08/30 05:50:16;;;;;;;9.37;7.10;;;;;;;13.81;100.00;100588.63;5019156;28;20263;-75
2021/08/30 05:52:42;;;;;;;7.37;4.93;;;;;;;13.93;100.00;100589.00;5019587;28;20242;-74
2021/08/30 05:55:10;;;;;;;5.10;4.20;;;;;;;14.01;100.00;100586.94;5022340;28;20298;-74
2021/08/30 05:57:36;;;;;;;13.10;7.30;;;;;;;14.08;100.00;100588.41;5021630;28;20198;-73
2021/08/30 06:00:04;;;;;;;5.07;4.30;;;;;;;14.09;100.00;100592.75;5019331;28;20854;-73
2021/08/30 06:02:30;;;;;;;4.40;3.97;;;;;;;14.14;100.00;100585.53;5014656;28;20280;-74
2021/08/30 06:04:57;;;;;;;4.67;3.80;;;;;;;14.23;100.00;100586.91;5019484;28;20730;-74
2021/08/30 06:07:25;;;;;;;4.37;3.67;;;;;;;14.28;100.00;100590.22;5021181;28;20223;-74
2021/08/30 06:09:51;;;;;;;3.93;3.50;;;;;;;14.25;100.00;100592.06;5027026;28;20216;-74
2021/08/30 06:12:17;;;;;;;3.57;3.27;;;;;;;14.26;100.00;100596.41;5025110;28;20255;-74
2021/08/30 06:14:44;;;;;;;3.40;2.97;;;;;;;14.27;100.00;100591.13;5026204;28;20448;-74
2021/08/30 06:17:10;;;;;;;2.90;2.70;;;;;;;14.22;100.00;100590.44;5020671;28;20198;-73
2021/08/30 06:19:36;;;;;;;2.73;2.37;;;;;;;14.28;100.00;100589.34;5025755;28;20211;-74
2021/08/30 06:22:04;;;;;;;2.50;2.30;;;;;;;14.34;100.00;100589.94;5025052;28;20237;-73
2021/08/30 06:24:31;;;;;;;3.30;2.80;;;;;;;14.34;100.00;100589.09;5024114;28;20199;-74
2021/08/30 06:26:58;;;;;;;2.87;2.37;;;;;;;14.28;100.00;100600.69;5025031;28;20226;-73
2021/08/30 06:29:24;;;;;;;3.20;2.80;;;;;;;14.28;100.00;100591.97;5021359;28;20456;-74
2021/08/30 06:31:52;;;;;;;7.33;5.17;;;;;;;13.98;100.00;100602.78;5023366;28;20214;-74
2021/08/30 06:34:19;;;;;;;7.67;5.60;;;;;;;13.70;100.00;100601.31;5024463;28;20369;-73
2021/08/30 06:36:45;;;;;;;7.37;5.47;;;;;;;13.64;100.00;100599.75;5024305;28;20200;-76
2021/08/30 06:39:11;;;;;;;7.70;5.50;;;;;;;13.67;100.00;100608.41;5024421;28;20204;-74
2021/08/30 06:41:39;;;;;;;8.60;6.00;;;;;;;13.66;100.00;100607.56;5023814;28;20237;-73
2021/08/30 06:44:06;;;;;;;9.20;5.63;;;;;;;13.49;100.00;100607.34;5025696;28;20214;-74
2021/08/30 06:46:32;;;;;;;10.77;5.90;;;;;;;13.41;100.00;100605.88;5022718;28;20566;-74
2021/08/30 06:48:59;;;;;;;8.90;5.97;;;;;;;13.42;100.00;100604.09;5023230;28;20422;-73
2021/08/30 06:51:25;;;;;;;10.03;6.63;;;;;;;13.49;100.00;100599.50;5023070;28;20558;-74
2021/08/30 06:53:52;;;;;;;10.83;6.50;;;;;;;13.54;100.00;100608.03;5025304;28;20289;-74
2021/08/30 06:56:18;;;;;;;10.30;6.33;;;;;;;13.59;100.00;100593.00;5026122;28;20258;-75
2021/08/30 06:58:46;;;;;;;11.77;6.83;;;;;;;13.68;100.00;100597.84;5023654;28;20196;-74
2021/08/30 07:01:12;;;;;;;12.00;7.33;;;;;;;13.64;100.00;100604.16;5020693;28;20244;-74
2021/08/30 07:03:38;;;;;;;10.73;6.53;;;;;;;13.68;100.00;100599.63;5026127;28;20206;-75
2021/08/30 07:06:05;;;;;;;10.43;7.13;;;;;;;13.78;100.00;100603.59;5023990;28;20806;-76
2021/08/30 07:08:31;;;;;;;13.50;8.43;;;;;;;13.75;100.00;100606.34;5026119;28;20691;-74
2021/08/30 07:10:58;;;;;;;13.13;8.53;;;;;;;13.90;100.00;100595.25;5023462;28;20211;-74
2021/08/30 07:13:24;;;;;;;11.03;6.93;;;;;;;13.91;100.00;100604.84;5023988;28;20200;-74
2021/08/30 07:15:52;;;;;;;8.60;6.33;;;;;;;13.96;100.00;100608.09;5022286;28;20213;-76
2021/08/30 07:18:18;;;;;;;8.80;5.77;;;;;;;14.05;100.00;100606.88;5022640;28;20214;-74
2021/08/30 07:20:45;;;;;;;7.83;5.47;;;;;;;14.15;100.00;100613.44;5016004;28;20208;-75
2021/08/30 07:23:12;;;;;;;9.07;5.50;;;;;;;14.14;100.00;100613.50;5020069;28;20254;-75
2021/08/30 07:25:38;;;;;;;7.70;5.13;;;;;;;14.22;100.00;100613.22;5024362;28;20208;-76
2021/08/30 07:28:05;;;;;;;6.40;4.77;;;;;;;14.25;100.00;100618.28;5021436;28;20215;-74
2021/08/30 07:30:31;;;;;;;7.50;4.67;;;;;;;14.20;100.00;100616.72;5021956;28;20208;-74
2021/08/30 07:32:59;;;;;;;4.43;3.77;;;;;;;14.17;100.00;100618.63;5022335;28;20235;-75
2021/08/30 07:35:27;;;;;;;4.97;3.93;;;;;;;14.24;100.00;100616.63;5022690;28;20207;-74
2021/08/30 07:37:54;;;;;;;4.90;3.83;;;;;;;14.34;100.00;100617.94;5021335;28;20199;-75
2021/08/30 07:40:20;;;;;;;4.80;4.03;;;;;;;14.41;100.00;100619.38;5022671;28;21242;-75
2021/08/30 07:42:46;;;;;;;5.00;3.93;;;;;;;14.53;100.00;100625.88;5024543;28;20325;-75
2021/08/30 07:45:13;;;;;;;4.23;3.43;;;;;;;14.62;100.00;100632.56;5023217;28;20200;-75
2021/08/30 07:47:41;;;;;;;4.00;3.40;;;;;;;14.69;100.00;100631.38;5024193;28;20208;-74
2021/08/30 07:50:10;;;;;;;4.93;3.97;;;;;;;14.68;100.00;100634.91;5022776;28;20207;-75
2021/08/30 07:52:37;;;;;;;3.53;3.13;;;;;;;14.58;100.00;100640.53;5024810;28;20245;-74
2021/08/30 07:55:05;;;;;;;4.77;3.67;;;;;;;14.47;100.00;100634.00;5023709;28;20203;-75
2021/08/30 07:57:31;;;;;;;5.53;3.50;;;;;;;14.53;100.00;100642.47;5018329;28;20599;-75
2021/08/30 07:59:58;;;;;;;4.73;3.70;;;;;;;14.53;100.00;100641.63;5020661;28;20204;-74
2021/08/30 08:02:24;;;;;;;4.50;3.63;;;;;;;14.54;100.00;100638.91;5021914;28;20230;-74
2021/08/30 08:04:50;;;;;;;3.77;3.00;;;;;;;14.66;100.00;100644.59;5025651;28;20212;-75
2021/08/30 08:07:18;;;;;;;4.37;3.60;;;;;;;14.73;100.00;100649.50;5019752;28;20481;-74
2021/08/30 08:09:44;;;;;;;3.80;3.00;;;;;;;14.73;100.00;100652.13;5020930;28;20218;-74
2021/08/30 08:12:11;;;;;;;3.60;2.90;;;;;;;14.85;100.00;100655.16;5021853;28;20839;-74
2021/08/30 08:14:37;;;;;;;3.60;2.57;;;;;;;14.89;100.00;100662.81;5024648;28;20212;-75
2021/08/30 08:17:04;;;;;;;3.40;2.60;;;;;;;14.82;100.00;100666.63;5021653;28;20200;-75
2021/08/30 08:19:30;;;;;;;3.03;2.67;;;;;;;14.85;100.00;100663.88;5023508;28;20211;-76
2021/08/30 08:21:57;;;;;;;3.20;2.73;;;;;;;14.76;100.00;100669.53;5023500;28;20223;-74
2021/08/30 08:24:25;;;;;;;3.03;2.33;;;;;;;14.68;100.00;100663.75;5021084;28;20204;-75
2021/08/30 08:26:51;;;;;;;3.27;2.60;;;;;;;14.65;100.00;100661.25;5024421;28;20207;-75
2021/08/30 08:29:18;;;;;;;3.60;2.67;;;;;;;14.60;100.00;100658.84;5021751;28;20244;-75
2021/08/30 08:31:45;;;;;;;3.17;2.67;;;;;;;14.50;100.00;100665.38;5025436;28;20224;-75
2021/08/30 08:34:11;;;;;;;3.40;2.80;;;;;;;14.50;100.00;100662.75;5022923;28;20210;-75
2021/08/30 08:36:39;;;;;;;3.00;2.63;;;;;;;14.51;100.00;100662.69;5024340;28;20210;-74
2021/08/30 08:39:05;;;;;;;2.90;2.60;;;;;;;14.68;100.00;100671.63;5017646;28;20228;-75
2021/08/30 08:41:35;;;;;;;3.37;2.87;;;;;;;14.66;100.00;100665.59;5023939;28;20599;-74
2021/08/30 08:44:04;;;;;;;3.47;2.57;;;;;;;14.74;100.00;100668.75;5022087;28;20199;-75
2021/08/30 08:46:31;;;;;;;2.50;2.30;;;;;;;14.76;100.00;100670.38;5023668;28;20246;-74
2021/08/30 08:48:58;;;;;;;3.33;2.67;;;;;;;14.79;100.00;100668.53;5020405;28;20235;-75
2021/08/30 08:51:25;;;;;;;2.70;2.50;;;;;;;14.64;100.00;100670.06;5018748;28;20231;-75
2021/08/30 08:53:51;;;;;;;4.73;2.73;;;;;;;14.51;100.00;100675.78;5022578;28;20211;-75
2021/08/30 08:56:23;;;;;;;2.40;2.13;;;;;;;14.43;100.00;100669.16;5020230;28;20204;-75
2021/08/30 08:58:51;;;;;;;2.57;2.37;;;;;;;14.43;100.00;100679.66;5016460;28;20203;-75
2021/08/30 09:01:23;;;;;;;2.80;2.37;;;;;;;14.76;100.00;100674.78;5023018;28;20241;-75
2021/08/30 09:03:53;;;;;;;2.60;2.40;;;;;;;14.86;100.00;100672.59;5021292;28;20212;-75
2021/08/30 09:06:25;;;;;;;3.73;2.23;;;;;;;15.20;100.00;100671.16;5024028;28;20651;-76
2021/08/30 09:08:54;;;;;;;2.60;2.30;;;;;;;15.27;100.00;100668.16;5021972;28;20220;-75
2021/08/30 09:11:22;;;;;;;2.33;2.13;;;;;;;15.55;100.00;100668.66;5018235;28;20204;-75
2021/08/30 09:13:52;;;;;;;2.03;1.83;;;;;;;15.69;100.00;100663.66;5019838;28;20203;-75
2021/08/30 09:16:20;;;;;;;2.80;2.20;;;;;;;15.96;100.00;100666.78;5024257;28;20204;-75
2021/08/30 09:18:47;;;;;;;2.33;1.60;;;;;;;15.96;99.64;100671.19;5021099;28;20686;-75
2021/08/30 09:21:15;;;;;;;1.80;1.70;;;;;;;16.20;100.00;100664.75;5021852;28;20248;-75
2021/08/30 09:23:43;;;;;;;2.00;1.80;;;;;;;16.12;96.91;100673.94;5021401;28;20210;-75
2021/08/30 09:26:15;;;;;;;2.10;1.87;;;;;;;16.16;99.88;100672.84;5022247;28;20220;-75
2021/08/30 09:28:43;;;;;;;1.90;1.80;;;;;;;16.04;98.72;100662.00;5023463;28;20587;-76
2021/08/30 09:31:11;;;;;;;1.70;1.60;;;;;;;16.06;99.13;100660.16;5021359;28;20273;-75
2021/08/30 09:33:47;;;;;;;1.97;1.70;;;;;;;16.22;100.00;100664.66;5020139;28;20203;-75
2021/08/30 09:36:13;;;;;;;3.63;2.23;;;;;;;16.23;99.64;100656.66;5021663;28;20692;-75
2021/08/30 09:38:39;;;;;;;3.27;1.90;;;;;;;16.17;98.69;100656.16;5022442;28;20507;-75
2021/08/30 09:41:07;;;;;;;2.10;1.90;;;;;;;16.13;100.00;100658.06;5020844;28;20200;-74
2021/08/30 09:43:34;;;;;;;2.10;1.90;;;;;;;16.11;97.17;100657.28;5020364;28;20215;-75
2021/08/30 09:46:01;;;;;;;2.37;2.17;;;;;;;16.12;97.60;100660.78;5021929;28;20207;-75
2021/08/30 09:48:30;;;;;;;3.27;1.87;;;;;;;16.03;97.86;100662.06;5021455;28;20233;-77
2021/08/30 09:51:00;;;;;;;2.13;2.00;;;;;;;15.96;97.42;100660.66;5022468;28;20217;-75
2021/08/30 09:53:26;;;;;;;2.30;2.03;;;;;;;15.99;99.82;100649.97;5020066;28;20307;-75
2021/08/30 09:55:53;;;;;;;2.87;2.10;;;;;;;16.03;100.00;100655.03;5005499;28;20682;-75
2021/08/30 09:58:20;;;;;;;2.43;2.00;;;;;;;16.08;100.00;100654.81;5018865;28;20677;-75
2021/08/30 10:00:47;;;;;;;2.27;1.90;;;;;;;16.14;100.00;100643.13;5020084;28;20218;-75
2021/08/30 10:03:16;;;;;;;2.47;2.17;;;;;;;16.18;100.00;100645.56;5022067;28;20293;-74
2021/08/30 10:05:44;;;;;;;2.50;2.20;;;;;;;16.24;99.66;100655.75;5019627;28;20236;-74
2021/08/30 10:08:13;;;;;;;3.03;2.43;;;;;;;16.25;99.45;100653.97;5022235;28;20678;-75
2021/08/30 10:10:40;;;;;;;2.20;2.00;;;;;;;16.34;100.00;100640.38;5021011;28;20230;-75
2021/08/30 10:13:10;;;;;;;2.87;2.50;;;;;;;16.36;100.00;100645.53;5023681;28;20226;-75
2021/08/30 10:15:37;;;;;;;4.10;2.50;;;;;;;16.36;99.70;100638.53;5017632;28;20287;-75
2021/08/30 10:18:03;;;;;;;2.53;2.20;;;;;;;16.41;100.00;100644.41;5022456;28;20336;-75
2021/08/30 10:20:34;;;;;;;3.07;2.57;;;;;;;16.49;99.18;100646.66;5016091;28;20199;-75
2021/08/30 10:23:04;;;;;;;3.50;2.90;;;;;;;16.60;96.58;100648.72;5021365;28;20227;-76
2021/08/30 10:25:31;;;;;;;3.97;3.00;;;;;;;16.70;96.81;100649.13;5019481;28;20285;-74
2021/08/30 10:28:00;;;;;;;4.93;2.90;;;;;;;16.71;93.14;100645.53;5020739;28;20615;-75
2021/08/30 10:30:27;;;;;;;3.83;2.60;;;;;;;16.89;96.19;100646.44;5021153;28;20200;-75
2021/08/30 10:32:55;;;;;;;4.60;2.50;;;;;;;16.97;94.30;100652.13;5020766;28;20247;-75
2021/08/30 10:35:23;;;;;;;2.80;2.50;;;;;;;17.01;92.09;100646.63;5019396;28;20231;-75
2021/08/30 10:37:58;;;;;;;3.17;2.30;;;;;;;16.85;91.55;100653.63;5017964;28;20236;-75
2021/08/30 10:40:29;;;;;;;3.53;2.40;;;;;;;16.83;94.48;100643.19;5020199;28;20930;-75
2021/08/30 10:43:01;;;;;;;2.40;2.20;;;;;;;16.88;97.21;100642.91;5018819;28;20627;-75
2021/08/30 10:45:33;;;;;;;2.70;2.30;;;;;;;16.86;91.08;100654.47;5022040;28;20274;-75
2021/08/30 10:48:03;;;;;;;2.60;2.23;;;;;;;16.83;91.61;100655.44;5018604;28;20220;-75
2021/08/30 10:50:30;;;;;;;2.97;2.67;;;;;;;16.85;91.88;100651.00;5016395;28;20211;-74
2021/08/30 10:53:05;;;;;;;2.93;2.63;;;;;;;16.79;95.48;100641.59;5022891;28;20224;-74
2021/08/30 10:55:39;;;;;;;2.87;2.23;;;;;;;16.67;91.26;100650.13;5021186;28;20205;-75
2021/08/30 10:58:12;;;;;;;3.10;2.67;;;;;;;16.67;91.05;100647.47;5023446;28;20223;-75
2021/08/30 11:00:39;;;;;;;3.00;2.47;;;;;;;16.56;91.20;100653.28;5022409;28;20210;-75
2021/08/30 11:03:06;;;;;;;4.03;2.53;;;;;;;16.56;92.55;100653.28;5024380;28;20270;-77
2021/08/30 11:05:34;;;;;;;3.17;2.70;;;;;;;16.53;91.98;100655.22;5024020;28;20239;-76
2021/08/30 11:08:00;;;;;;;3.60;3.07;;;;;;;16.43;91.96;100658.34;5024641;28;20224;-75
2021/08/30 11:10:28;;;;;;;4.63;3.80;;;;;;;16.42;94.13;100640.81;5022241;28;20211;-75
2021/08/30 11:12:57;;;;;;;4.50;3.73;;;;;;;16.34;92.80;100645.66;5023214;28;20220;-74
2021/08/30 11:15:29;;;;;;;4.03;3.60;;;;;;;16.40;95.53;100641.84;5021737;28;20322;-75
2021/08/30 11:17:59;;;;;;;4.37;3.80;;;;;;;16.45;96.00;100640.69;5023969;28;20207;-75
2021/08/30 11:20:26;;;;;;;5.77;3.50;;;;;;;16.54;98.03;100647.25;5024023;28;20204;-75